createdAt,value
2019-01-14T00:04:56.941Z,31.57
2019-01-14T00:10:03.399Z,21.27
2019-01-14T00:15:10.779Z,21.63
2019-01-14T00:20:15.948Z,20.80
2019-01-14T00:25:21.071Z,21.90
2019-01-14T00:30:26.070Z,22.57
2019-01-14T00:35:31.376Z,21.57
2019-01-14T00:40:36.366Z,23.47
2019-01-14T00:45:41.422Z,25.07
2019-01-14T00:50:46.910Z,22.87
2019-01-14T00:55:51.958Z,22.03
2019-01-14T01:00:57.072Z,27.43
2019-01-14T01:06:02.114Z,25.47
2019-01-14T01:11:07.591Z,21.67
2019-01-14T01:16:12.658Z,23.60
2019-01-14T01:21:17.731Z,22.53
2019-01-14T01:26:23.004Z,23.77
2019-01-14T01:31:28.290Z,25.27
2019-01-14T01:36:33.392Z,30.23
2019-01-14T01:41:38.410Z,29.57
2019-01-14T01:46:43.451Z,30.67
2019-01-14T01:51:48.542Z,23.77
2019-01-14T01:56:53.633Z,26.17
2019-01-14T02:01:58.998Z,27.17
2019-01-14T02:07:04.057Z,29.13
2019-01-14T02:12:09.520Z,26.70
2019-01-14T02:17:14.726Z,26.20
2019-01-14T02:22:19.744Z,22.47
2019-01-14T02:27:24.759Z,22.83
2019-01-14T02:32:29.906Z,21.97
2019-01-14T02:37:34.938Z,31.00
2019-01-14T02:42:40.000Z,31.60
2019-01-14T02:47:44.992Z,25.37
2019-01-14T02:52:50.100Z,26.93
2019-01-14T02:57:55.114Z,25.70
2019-01-14T03:03:00.456Z,25.13
2019-01-14T03:08:05.795Z,24.47
2019-01-14T03:13:10.779Z,30.50
2019-01-14T03:18:15.888Z,26.17
2019-01-14T03:23:20.924Z,21.40
2019-01-14T03:28:26.047Z,24.33
2019-01-14T03:33:31.110Z,22.67
2019-01-14T03:38:36.156Z,22.77
2019-01-14T03:43:41.167Z,24.77
2019-01-14T03:48:46.166Z,25.47
2019-01-14T03:53:51.250Z,22.87
2019-01-14T03:58:56.257Z,22.90
2019-01-14T04:04:01.260Z,26.53
2019-01-14T04:09:07.776Z,24.47
2019-01-14T04:14:12.744Z,26.23
2019-01-14T04:19:18.064Z,28.23
2019-01-14T04:24:23.422Z,27.10
2019-01-14T04:29:28.968Z,27.27
2019-01-14T04:34:35.494Z,26.37
2019-01-14T04:39:40.733Z,34.10
2019-01-14T04:44:49.034Z,27.93
2019-01-14T04:49:59.336Z,24.67
2019-01-14T04:55:06.335Z,26.70
2019-01-14T05:00:14.524Z,26.57
2019-01-14T05:05:19.810Z,26.70
2019-01-14T05:10:25.016Z,29.00
2019-01-14T05:15:30.201Z,29.37
2019-01-14T05:20:35.384Z,30.00
2019-01-14T05:25:40.396Z,28.97
2019-01-14T05:30:45.723Z,31.03
2019-01-14T05:35:50.840Z,30.70
2019-01-14T05:40:55.916Z,30.07
2019-01-14T05:46:00.969Z,32.47
2019-01-14T05:51:06.022Z,35.97
2019-01-14T05:56:11.073Z,31.03
2019-01-14T06:01:16.069Z,32.13
2019-01-14T06:06:21.084Z,33.33
2019-01-14T06:11:26.216Z,33.83
2019-01-14T06:16:32.257Z,39.43
2019-01-14T06:21:37.238Z,30.83
2019-01-14T06:26:42.714Z,33.83
2019-01-14T06:31:47.668Z,26.10
2019-01-14T06:36:52.634Z,34.03
2019-01-14T06:41:57.788Z,36.67
2019-01-14T06:47:03.152Z,30.93
2019-01-14T06:52:08.282Z,26.07
2019-01-14T06:57:13.546Z,25.33
2019-01-14T07:02:18.666Z,23.07
2019-01-14T07:07:23.662Z,25.03
2019-01-14T07:12:30.631Z,32.37
2019-01-14T07:17:37.246Z,31.97
2019-01-14T07:22:42.325Z,28.70
2019-01-14T07:28:00.269Z,29.23
2019-01-14T07:33:09.770Z,29.57
2019-01-14T07:38:15.322Z,29.53
2019-01-14T07:43:20.834Z,29.27
2019-01-14T07:48:30.391Z,29.73
2019-01-14T07:53:40.472Z,28.10
2019-01-14T07:58:48.910Z,23.47
2019-01-14T08:03:54.642Z,26.97
2019-01-14T08:09:03.130Z,24.30
2019-01-14T08:14:10.794Z,23.50
2019-01-14T08:19:16.247Z,22.60
2019-01-14T08:24:26.268Z,21.43
2019-01-14T08:29:33.413Z,21.00
2019-01-14T08:34:38.935Z,23.20
2019-01-14T08:39:52.186Z,20.23
2019-01-14T08:45:01.133Z,22.13
2019-01-14T08:50:09.112Z,26.07
2019-01-14T08:55:14.435Z,29.30
2019-01-14T09:00:21.645Z,24.00
2019-01-14T09:05:26.800Z,24.40
2019-01-14T09:10:31.859Z,22.77
2019-01-14T09:15:47.422Z,22.97
2019-01-14T09:20:45.214Z,25.27
2019-01-14T09:25:53.910Z,22.97
2019-01-14T09:30:57.067Z,23.33
2019-01-14T09:36:02.204Z,22.17
2019-01-14T09:41:07.470Z,20.07
2019-01-14T09:46:12.583Z,22.13
2019-01-14T09:51:17.714Z,22.67
2019-01-14T09:56:22.823Z,26.70
2019-01-14T10:01:28.039Z,19.93
2019-01-14T10:06:34.598Z,22.10
2019-01-14T10:11:39.810Z,22.73
2019-01-14T10:16:45.456Z,24.17
2019-01-14T10:21:50.817Z,22.43
2019-01-14T10:26:55.945Z,25.53
2019-01-14T10:32:01.531Z,22.70
2019-01-14T10:37:06.905Z,19.73
2019-01-14T10:42:12.074Z,18.77
2019-01-14T10:47:21.186Z,24.40
2019-01-14T10:52:26.335Z,21.33
2019-01-14T10:57:31.452Z,17.07
2019-01-14T11:02:36.742Z,16.27
2019-01-14T11:07:42.304Z,19.27
2019-01-14T11:12:47.410Z,20.30
2019-01-14T11:17:52.620Z,21.00
2019-01-14T11:22:58.130Z,19.70
2019-01-14T11:28:03.230Z,19.03
2019-01-14T11:33:08.892Z,24.93
2019-01-14T11:38:39.265Z,25.50
2019-01-14T11:43:44.543Z,23.83
2019-01-14T11:48:49.619Z,26.50
2019-01-14T11:53:54.672Z,25.60
2019-01-14T11:58:59.890Z,23.63
2019-01-14T12:04:05.062Z,23.43
2019-01-14T12:09:12.612Z,21.70
2019-01-14T12:14:17.836Z,19.07
2019-01-14T12:19:22.882Z,19.93
2019-01-14T12:24:28.022Z,19.43
2019-01-14T12:29:33.167Z,21.80
2019-01-14T12:34:38.242Z,20.93
2019-01-14T12:39:43.506Z,27.90
2019-01-14T12:44:48.823Z,34.63
2019-01-14T12:49:58.853Z,31.90
2019-01-14T12:55:18.392Z,29.93
2019-01-14T13:00:25.664Z,29.90
2019-01-14T13:05:31.070Z,27.97
2019-01-14T13:10:36.548Z,26.67
2019-01-14T13:15:46.735Z,22.43
2019-01-14T13:20:52.168Z,22.47
2019-01-14T13:25:57.852Z,24.43
2019-01-14T13:31:02.963Z,25.80
2019-01-14T13:36:10.118Z,27.17
2019-01-14T13:41:21.393Z,34.87
2019-01-14T13:46:31.975Z,32.43
2019-01-14T13:51:37.703Z,31.83
2019-01-14T13:56:43.022Z,35.17
2019-01-14T14:01:48.116Z,32.73
2019-01-14T14:06:56.494Z,32.70
2019-01-14T14:12:01.799Z,32.50
2019-01-14T14:17:09.056Z,34.40
2019-01-14T14:22:14.231Z,34.00
2019-01-14T14:27:21.919Z,30.13
2019-01-14T14:32:29.405Z,32.80
2019-01-14T14:37:35.046Z,35.27
2019-01-14T14:42:40.181Z,35.73
2019-01-14T14:47:50.310Z,34.93
2019-01-14T14:52:57.996Z,36.23
2019-01-14T14:58:03.485Z,35.87
2019-01-14T15:03:08.752Z,38.70
2019-01-14T15:08:13.866Z,36.33
2019-01-14T15:13:19.115Z,35.00
2019-01-14T15:18:24.408Z,36.03
2019-01-14T15:23:29.586Z,32.70
2019-01-14T15:28:34.791Z,34.17
2019-01-14T15:33:44.228Z,33.50
2019-01-14T15:38:52.646Z,29.00
2019-01-14T15:44:07.975Z,32.63
2019-01-14T15:49:18.543Z,28.40
2019-01-14T15:54:28.513Z,34.47
2019-01-14T15:59:38.401Z,33.13
2019-01-14T16:04:46.444Z,31.40
2019-01-14T16:09:57.348Z,29.00
2019-01-14T16:15:02.654Z,30.50
2019-01-14T16:20:17.421Z,27.47
2019-01-14T16:25:22.654Z,30.40
2019-01-14T16:30:32.600Z,32.30
2019-01-14T16:35:41.587Z,28.87
2019-01-14T16:40:48.581Z,30.50
2019-01-14T16:46:00.679Z,29.83
2019-01-14T16:51:07.120Z,28.90
2019-01-14T16:56:19.291Z,29.60
2019-01-14T17:01:33.207Z,29.27
2019-01-14T17:06:47.967Z,30.67
2019-01-14T17:11:55.208Z,30.07
2019-01-14T17:17:01.749Z,33.60
2019-01-14T17:22:07.814Z,34.63
2019-01-14T17:27:13.233Z,32.60
2019-01-14T17:32:20.927Z,34.80
2019-01-14T17:37:27.823Z,32.40
2019-01-14T17:42:33.230Z,30.07
2019-01-14T17:47:41.245Z,30.00
2019-01-14T17:52:47.506Z,30.70
2019-01-14T17:57:53.239Z,30.20
2019-01-14T18:02:58.611Z,28.80
2019-01-14T18:08:05.443Z,29.77
2019-01-14T18:13:10.721Z,31.47
2019-01-14T18:18:18.751Z,28.00
2019-01-14T18:23:30.698Z,27.23
2019-01-14T18:28:36.028Z,30.53
2019-01-14T18:33:41.565Z,23.90
2019-01-14T18:38:47.090Z,28.33
2019-01-14T18:43:52.334Z,23.90
2019-01-14T18:49:01.140Z,26.27
2019-01-14T18:54:07.779Z,26.20
2019-01-14T18:59:14.128Z,24.43
2019-01-14T19:04:21.791Z,25.33
2019-01-14T19:09:33.012Z,27.27
2019-01-14T19:14:39.698Z,27.30
2019-01-14T19:19:46.935Z,30.20
2019-01-14T19:24:54.358Z,26.00
2019-01-14T19:29:59.323Z,23.77
2019-01-14T19:35:05.650Z,25.67
2019-01-14T19:40:14.535Z,27.03
2019-01-14T19:45:21.926Z,27.67
2019-01-14T19:50:35.119Z,26.90
2019-01-14T19:55:42.955Z,29.07
2019-01-14T20:00:48.545Z,25.33
2019-01-14T20:05:54.305Z,28.67
2019-01-14T20:11:14.444Z,31.13
2019-01-14T20:16:19.005Z,33.80
2019-01-14T20:21:24.355Z,32.87
2019-01-14T20:26:29.766Z,33.30
2019-01-14T20:31:44.656Z,29.90
2019-01-14T20:36:55.711Z,33.50
2019-01-14T20:42:01.723Z,33.73
2019-01-14T20:47:09.023Z,37.90
2019-01-14T20:52:14.538Z,33.27
2019-01-14T20:57:19.785Z,36.40
2019-01-14T21:02:24.897Z,37.00
2019-01-14T21:07:30.880Z,33.17
2019-01-14T21:12:39.259Z,36.07
2019-01-14T21:17:46.047Z,35.93
2019-01-14T21:22:56.246Z,37.10
2019-01-14T21:28:08.902Z,38.93
2019-01-14T21:33:23.845Z,37.27
2019-01-14T21:38:32.206Z,41.13
2019-01-14T21:43:43.926Z,35.37
2019-01-14T21:48:51.341Z,35.77
2019-01-14T21:53:56.850Z,36.77
2019-01-14T21:59:08.794Z,35.47
2019-01-14T22:04:18.319Z,38.13
2019-01-14T22:09:25.578Z,35.60
2019-01-14T22:14:31.021Z,31.57
2019-01-14T22:19:36.197Z,35.97
2019-01-14T22:24:42.893Z,34.50
2019-01-14T22:29:49.091Z,35.03
2019-01-14T22:34:55.169Z,33.63
2019-01-14T22:40:00.737Z,33.70
2019-01-14T22:45:06.673Z,36.00
2019-01-14T22:50:13.761Z,37.47
2019-01-14T22:55:19.201Z,42.47
2019-01-14T23:00:46.968Z,38.07
2019-01-14T23:05:53.895Z,37.97
2019-01-14T23:10:59.259Z,35.27
2019-01-14T23:16:05.217Z,35.93
2019-01-14T23:21:10.406Z,35.63
2019-01-14T23:26:15.544Z,36.40
2019-01-14T23:31:20.629Z,36.27
2019-01-14T23:36:26.001Z,33.97
2019-01-14T23:41:30.974Z,35.77
2019-01-14T23:46:36.023Z,31.77
2019-01-14T23:51:41.003Z,34.53
2019-01-14T23:56:46.029Z,33.23
